Time;durP1;ratioP1;P1;durP2;ratioP2;P2;SDS_P1;SDS_P2;PMS_P1;PMS_P2;Temp;Humidity;BMP_temperature;BMP_pressure;BME280_temperature;BME280_humidity;BME280_pressure;Samples;Min_cycle;Max_cycle;Signal;HPM_P1;HPM_P2
2022/05/11 00:00:27;;;;;;;15.80;11.07;;;;;;;14.30;36.34;97511.31;5073177;28;20459;-67
2022/05/11 00:02:52;;;;;;;24.38;13.98;;;;;;;14.33;35.96;97501.63;5072499;28;20131;-66
2022/05/11 00:05:18;;;;;;;34.45;16.95;;;;;;;14.28;36.18;97490.63;5072653;28;20078;-68
2022/05/11 00:07:44;;;;;;;32.88;14.95;;;;;;;14.34;36.23;97498.56;5072927;28;20048;-65
2022/05/11 00:10:13;;;;;;;16.15;12.00;;;;;;;14.35;36.23;97493.84;5072957;28;20045;-65
2022/05/11 00:12:42;;;;;;;21.48;12.90;;;;;;;14.32;36.04;97492.50;5072364;28;20044;-69
2022/05/11 00:15:10;;;;;;;30.35;13.30;;;;;;;14.30;36.35;97486.47;5072504;28;20047;-65
2022/05/11 00:17:36;;;;;;;27.02;14.15;;;;;;;14.26;36.21;97482.63;5072052;28;20048;-66
2022/05/11 00:20:04;;;;;;;30.98;16.30;;;;;;;14.29;36.12;97497.78;5072074;28;20159;-65
2022/05/11 00:22:29;;;;;;;28.80;16.33;;;;;;;14.32;36.02;97486.97;5072160;28;20446;-65
2022/05/11 00:24:55;;;;;;;28.83;15.82;;;;;;;14.35;36.32;97488.34;5072347;28;20045;-67
2022/05/11 00:27:21;;;;;;;31.02;18.58;;;;;;;14.39;35.97;97485.84;5072125;28;20098;-71
2022/05/11 00:29:47;;;;;;;22.77;13.75;;;;;;;14.38;36.02;97482.22;5071966;28;20049;-67
2022/05/11 00:32:12;;;;;;;33.88;16.98;;;;;;;14.39;36.25;97483.06;5072227;28;20082;-66
2022/05/11 00:34:38;;;;;;;54.35;17.55;;;;;;;14.38;35.92;97482.22;5072576;28;20067;-65
2022/05/11 00:37:04;;;;;;;38.15;17.70;;;;;;;14.37;36.32;97483.38;5072054;28;20045;-66
2022/05/11 00:39:32;;;;;;;29.88;15.32;;;;;;;14.41;36.02;97489.94;5072710;28;20045;-66
2022/05/11 00:42:01;;;;;;;34.83;16.00;;;;;;;14.46;35.95;97481.59;5072083;28;20483;-66
2022/05/11 00:44:27;;;;;;;35.45;17.80;;;;;;;14.51;36.02;97483.47;5072161;28;20222;-64
2022/05/11 00:47:01;;;;;;;22.55;12.85;;;;;;;14.56;35.88;97480.69;5071346;28;20548;-68
2022/05/11 00:49:45;;;;;;;47.75;16.67;;;;;;;14.62;36.00;97478.69;5072013;28;20049;-67
2022/05/11 00:52:18;;;;;;;31.65;15.50;;;;;;;14.67;35.64;97482.22;5072129;28;20033;-68
2022/05/11 00:54:56;;;;;;;25.65;13.15;;;;;;;14.67;35.74;97476.69;5072188;28;20044;-65
2022/05/11 00:57:32;;;;;;;22.45;13.25;;;;;;;14.70;35.87;97481.63;5072155;28;20063;-69
2022/05/11 00:59:59;;;;;;;24.27;13.25;;;;;;;14.69;35.96;97484.69;5071812;28;20494;-65
2022/05/11 01:02:26;;;;;;;28.20;14.43;;;;;;;14.63;36.05;97480.34;5072838;28;20051;-69
2022/05/11 01:04:56;;;;;;;29.98;12.68;;;;;;;14.67;36.04;97475.88;5071835;28;20551;-67
2022/05/11 01:07:22;;;;;;;31.23;15.55;;;;;;;14.66;35.85;97486.13;5071774;28;20064;-68
2022/05/11 01:09:48;;;;;;;32.80;15.70;;;;;;;14.73;35.72;97490.47;5071667;28;20060;-67
2022/05/11 01:12:19;;;;;;;25.17;11.77;;;;;;;14.71;35.93;97483.28;5071445;28;20495;-68
2022/05/11 01:14:51;;;;;;;17.48;10.02;;;;;;;14.69;35.95;97488.28;5071479;28;20045;-67
2022/05/11 01:17:18;;;;;;;20.50;9.05;;;;;;;14.68;35.82;97491.34;5071344;28;20080;-66
2022/05/11 01:19:46;;;;;;;30.85;10.20;;;;;;;14.65;35.68;97489.97;5071418;28;20044;-64
2022/05/11 01:22:27;;;;;;;20.50;11.63;;;;;;;14.62;35.76;97490.56;5071395;28;20050;-68
2022/05/11 01:24:52;;;;;;;18.85;9.90;;;;;;;14.64;35.99;97491.09;5071459;28;20051;-67
2022/05/11 01:27:28;;;;;;;23.60;12.63;;;;;;;14.66;35.95;97479.75;5071287;28;20040;-66
2022/05/11 01:29:56;;;;;;;17.73;10.55;;;;;;;14.71;35.55;97485.22;5071520;28;20051;-67
2022/05/11 01:32:23;;;;;;;19.67;9.20;;;;;;;14.73;35.44;97487.69;5070860;28;20128;-71
2022/05/11 01:34:56;;;;;;;21.20;10.40;;;;;;;14.70;35.90;97489.91;5073823;28;20422;-71
2022/05/11 01:37:22;;;;;;;18.30;11.10;;;;;;;14.73;35.55;97490.47;5070207;28;20087;-68
2022/05/11 01:39:49;;;;;;;15.52;9.07;;;;;;;14.75;35.47;97488.22;5072691;28;20043;-66
2022/05/11 01:42:15;;;;;;;17.52;10.82;;;;;;;14.81;35.53;97496.16;5077364;28;20049;-70
2022/05/11 01:44:41;;;;;;;14.38;9.70;;;;;;;14.82;35.20;97496.97;5075149;28;20071;-65
2022/05/11 01:47:07;;;;;;;19.73;8.95;;;;;;;14.82;35.33;97494.22;5073938;28;20090;-69
2022/05/11 01:49:33;;;;;;;14.07;7.82;;;;;;;14.83;35.24;97501.38;5069491;28;20144;-67
2022/05/11 01:51:59;;;;;;;23.95;12.05;;;;;;;14.80;35.41;97504.75;5061901;28;20526;-68
2022/05/11 01:54:25;;;;;;;16.85;10.20;;;;;;;14.76;35.67;97501.72;5053734;28;20045;-69
2022/05/11 01:56:51;;;;;;;25.52;9.75;;;;;;;14.69;35.69;97496.56;5053341;28;20043;-71
2022/05/11 01:59:17;;;;;;;12.32;8.02;;;;;;;14.68;35.63;97494.91;5035221;28;20056;-67
2022/05/11 02:01:42;;;;;;;15.35;7.95;;;;;;;14.61;35.29;97493.59;5053434;28;20044;-67
2022/05/11 02:09:41;;;;;;;14.02;7.63;;;;;;;14.56;35.49;97494.47;5053759;28;20582;-68
2022/05/11 02:12:09;;;;;;;14.23;7.93;;;;;;;14.50;35.23;97476.31;5051645;28;20132;-73
2022/05/11 02:14:35;;;;;;;22.83;9.93;;;;;;;14.62;35.38;97495.25;5053416;28;20483;-65
2022/05/11 02:17:02;;;;;;;10.63;8.07;;;;;;;14.64;35.50;97484.75;5058621;28;20032;-71
2022/05/11 02:19:29;;;;;;;13.10;7.68;;;;;;;14.68;35.25;97483.88;5073852;28;20044;-67
2022/05/11 02:21:55;;;;;;;15.95;9.25;;;;;;;14.70;35.16;97492.69;5073523;28;20738;-70
2022/05/11 02:24:21;;;;;;;11.75;7.38;;;;;;;14.75;35.16;97490.97;5074473;28;20072;-71
2022/05/11 02:26:47;;;;;;;19.25;7.15;;;;;;;14.70;35.49;97494.63;5074120;28;20118;-67
2022/05/11 02:29:13;;;;;;;10.48;6.68;;;;;;;14.64;35.31;97487.53;5074150;28;20040;-69
2022/05/11 02:31:39;;;;;;;10.57;6.95;;;;;;;14.67;35.11;97489.69;5072527;28;20033;-69
2022/05/11 02:34:06;;;;;;;13.48;8.35;;;;;;;14.73;35.16;97482.16;5073942;28;20048;-68
2022/05/11 02:36:33;;;;;;;23.10;8.23;;;;;;;14.82;35.26;97483.16;5074469;28;20063;-70
2022/05/11 02:39:01;;;;;;;15.05;8.38;;;;;;;14.86;34.98;97485.03;5073856;28;20503;-70
2022/05/11 02:41:26;;;;;;;20.73;8.75;;;;;;;14.89;34.67;97480.84;5074136;28;20445;-72
2022/05/11 02:43:52;;;;;;;10.13;6.07;;;;;;;15.00;34.84;97482.38;5073503;28;20128;-69
2022/05/11 02:46:18;;;;;;;8.65;7.40;;;;;;;15.03;34.80;97484.56;5072829;28;20533;-69
2022/05/11 02:48:44;;;;;;;11.43;5.70;;;;;;;15.09;34.60;97484.47;5073145;28;20513;-68
2022/05/11 02:51:10;;;;;;;11.95;7.75;;;;;;;15.16;34.72;97462.81;5073999;28;20048;-71
2022/05/11 02:53:36;;;;;;;14.27;5.63;;;;;;;15.32;34.25;97469.75;5073712;28;20040;-70
2022/05/11 02:56:02;;;;;;;9.85;6.03;;;;;;;15.37;34.43;97464.16;5055873;28;20045;-69
2022/05/11 02:58:32;;;;;;;20.85;6.28;;;;;;;15.54;34.15;97466.38;5073030;28;20514;-68
2022/05/11 03:01:00;;;;;;;24.58;7.70;;;;;;;15.66;34.01;97465.94;5073489;28;20128;-70
2022/05/11 03:03:33;;;;;;;15.35;5.95;;;;;;;15.68;33.92;97458.16;5072586;28;20320;-71
2022/05/11 03:05:59;;;;;;;19.92;6.35;;;;;;;15.76;33.98;97474.06;5073310;28;20370;-69
2022/05/11 03:08:24;;;;;;;12.15;8.13;;;;;;;15.73;34.10;97480.19;5073377;28;20059;-72
2022/05/11 03:10:50;;;;;;;6.55;5.03;;;;;;;15.75;33.89;97472.44;5073954;28;20045;-69
2022/05/11 03:13:17;;;;;;;13.27;6.20;;;;;;;15.83;33.91;97461.84;5073753;28;20044;-67
2022/05/11 03:15:43;;;;;;;10.07;5.47;;;;;;;15.96;33.56;97460.22;5073571;28;20095;-69
2022/05/11 03:18:09;;;;;;;7.90;6.20;;;;;;;16.23;33.46;97462.25;5072932;28;20053;-68
2022/05/11 03:20:35;;;;;;;18.92;5.80;;;;;;;16.57;33.00;97463.81;5074217;28;20044;-68
2022/05/11 03:23:01;;;;;;;20.13;7.55;;;;;;;16.76;32.85;97452.63;5073214;28;20406;-67
2022/05/11 03:25:27;;;;;;;9.77;6.50;;;;;;;16.97;32.64;97456.66;5073144;28;20037;-69
2022/05/11 03:27:53;;;;;;;7.75;4.88;;;;;;;17.26;32.32;97449.09;5073064;28;20036;-68
2022/05/11 03:30:20;;;;;;;9.77;5.13;;;;;;;17.32;32.09;97450.63;5072937;28;20123;-67
2022/05/11 03:35:30;;;;;;;11.25;4.38;;;;;;;17.29;32.45;97440.16;5073541;28;20449;-69
2022/05/11 03:37:56;;;;;;;9.65;5.00;;;;;;;17.15;32.61;97443.78;5073139;28;20045;-71
2022/05/11 03:40:23;;;;;;;8.88;3.67;;;;;;;17.27;32.56;97443.25;5072478;28;20110;-69
2022/05/11 03:42:49;;;;;;;4.85;3.17;;;;;;;17.40;32.33;97438.78;5072829;28;20084;-67
2022/05/11 03:45:23;;;;;;;4.40;2.35;;;;;;;17.29;32.50;97437.38;5072669;28;20060;-66
2022/05/11 03:47:49;;;;;;;4.28;3.72;;;;;;;17.08;32.71;97446.16;5072730;28;20128;-70
2022/05/11 03:50:17;;;;;;;6.57;5.20;;;;;;;17.14;32.64;97436.59;5073069;28;20131;-69
2022/05/11 03:52:43;;;;;;;5.25;3.45;;;;;;;17.02;32.98;97444.63;5072611;28;20482;-71
2022/05/11 03:55:10;;;;;;;3.45;2.28;;;;;;;17.07;32.83;97440.91;5054399;28;20396;-69
2022/05/11 03:57:37;;;;;;;5.85;3.13;;;;;;;17.09;32.58;97436.72;5072600;28;20040;-69
2022/05/11 04:00:06;;;;;;;10.75;4.25;;;;;;;16.96;32.91;97429.22;5072325;28;20057;-66
2022/05/11 04:02:32;;;;;;;9.25;3.20;;;;;;;16.94;32.74;97437.84;5072636;28;20528;-71
2022/05/11 04:04:58;;;;;;;9.20;4.60;;;;;;;16.90;32.88;97445.16;5072768;28;20040;-67
2022/05/11 04:07:24;;;;;;;3.78;2.83;;;;;;;16.82;32.98;97451.38;5072320;28;20518;-68
2022/05/11 04:09:50;;;;;;;17.83;3.45;;;;;;;16.74;33.11;97439.09;5054216;28;20064;-68
2022/05/11 04:12:16;;;;;;;4.65;2.78;;;;;;;16.68;33.17;97432.00;5072746;28;20480;-70
2022/05/11 04:14:42;;;;;;;9.38;3.63;;;;;;;16.65;32.83;97438.16;5072625;28;20101;-68
2022/05/11 04:17:08;;;;;;;4.05;3.05;;;;;;;16.47;33.07;97442.66;5071787;28;20040;-66
2022/05/11 04:19:36;;;;;;;3.47;2.67;;;;;;;16.37;33.04;97435.38;5054365;28;20498;-67
2022/05/11 04:22:02;;;;;;;7.80;3.35;;;;;;;16.30;33.38;97451.59;5072177;28;20111;-70
2022/05/11 04:24:28;;;;;;;5.70;3.10;;;;;;;16.33;33.16;97450.97;5072464;28;20483;-67
2022/05/11 04:26:54;;;;;;;6.47;3.00;;;;;;;16.24;33.02;97444.50;5072199;28;20043;-68
2022/05/11 04:29:20;;;;;;;5.43;3.03;;;;;;;16.03;33.20;97438.50;5054216;28;20418;-67
2022/05/11 04:31:51;;;;;;;5.18;4.10;;;;;;;15.85;33.70;97443.78;5072302;28;20098;-69
2022/05/11 04:34:17;;;;;;;2.65;1.80;;;;;;;15.63;33.97;97446.34;5072199;28;20037;-67
2022/05/11 04:36:43;;;;;;;22.35;4.18;;;;;;;15.56;34.19;97435.66;5071683;28;20059;-66
2022/05/11 04:39:08;;;;;;;11.18;3.38;;;;;;;15.56;34.12;97435.66;5072136;28;20076;-66
2022/05/11 04:41:35;;;;;;;4.55;3.40;;;;;;;15.70;34.02;97436.53;5072785;28;20071;-67
2022/05/11 04:44:01;;;;;;;5.15;1.65;;;;;;;15.86;33.68;97444.63;5072280;28;20060;-69
2022/05/11 04:46:26;;;;;;;3.80;3.00;;;;;;;15.99;33.49;97438.31;5071911;28;20037;-68
2022/05/11 04:49:16;;;;;;;4.65;2.30;;;;;;;16.09;33.35;97440.88;5071538;28;20067;-68
2022/05/11 04:51:39;;;;;;;4.63;2.50;;;;;;;16.06;33.48;97438.72;5071719;28;20075;-67
2022/05/11 04:54:05;;;;;;;2.78;2.10;;;;;;;16.07;33.25;97434.81;5072010;28;20060;-68
2022/05/11 04:56:34;;;;;;;4.35;2.33;;;;;;;16.00;33.30;97444.66;5072157;28;20053;-70
2022/05/11 04:58:59;;;;;;;9.23;3.35;;;;;;;15.92;33.58;97443.41;5072046;28;20055;-67
2022/05/11 05:01:26;;;;;;;7.55;2.85;;;;;;;16.07;33.62;97423.75;5072088;28;20056;-67
2022/05/11 05:03:52;;;;;;;25.40;3.50;;;;;;;16.23;33.07;97426.25;5071969;28;20036;-68
2022/05/11 05:06:18;;;;;;;2.10;1.95;;;;;;;16.42;32.83;97438.03;5072899;28;20578;-68
2022/05/11 05:08:43;;;;;;;9.10;2.85;;;;;;;16.33;33.36;97419.66;5076458;28;20052;-70
2022/05/11 05:11:09;;;;;;;10.73;3.17;;;;;;;16.17;33.50;97450.44;5075806;28;20115;-68
2022/05/11 05:13:35;;;;;;;4.05;3.13;;;;;;;16.07;33.54;97434.00;5075888;28;20036;-69
2022/05/11 05:16:01;;;;;;;7.30;2.67;;;;;;;16.01;33.57;97436.03;5076137;28;20037;-70
2022/05/11 05:18:28;;;;;;;5.40;3.83;;;;;;;15.89;33.96;97432.94;5075271;28;20098;-67
2022/05/11 05:20:55;;;;;;;11.95;3.90;;;;;;;15.58;34.25;97444.50;5075923;28;20036;-69
2022/05/11 05:23:22;;;;;;;9.18;5.28;;;;;;;15.13;35.16;97428.28;5075626;28;20055;-67
2022/05/11 05:25:48;;;;;;;6.30;2.50;;;;;;;14.88;35.46;97435.81;5076070;28;20051;-70
2022/05/11 05:31:04;;;;;;;3.35;3.08;;;;;;;14.78;35.47;97451.69;5075841;28;20131;-67
2022/05/11 05:33:31;;;;;;;3.53;2.92;;;;;;;14.66;35.70;97441.91;5075863;28;20482;-69
2022/05/11 05:35:58;;;;;;;4.80;2.70;;;;;;;14.45;36.04;97443.22;5075603;28;20139;-67
2022/05/11 05:38:23;;;;;;;6.38;3.00;;;;;;;14.40;36.00;97448.81;5075554;28;20450;-70
2022/05/11 05:40:49;;;;;;;6.82;2.90;;;;;;;14.24;36.17;97439.88;5075196;28;20135;-69
2022/05/11 05:43:15;;;;;;;19.50;2.97;;;;;;;14.07;36.30;97437.56;5076260;28;20055;-66
2022/05/11 05:45:47;;;;;;;3.03;2.65;;;;;;;13.93;36.74;97452.03;5075140;28;20040;-66
2022/05/11 05:48:13;;;;;;;3.92;3.33;;;;;;;13.75;37.08;97461.03;5074298;28;20182;-67
2022/05/11 05:50:39;;;;;;;8.52;3.10;;;;;;;13.63;37.34;97451.19;5056780;28;20128;-68
2022/05/11 05:53:04;;;;;;;5.20;2.65;;;;;;;13.58;37.24;97451.22;5074924;28;20040;-70
2022/05/11 05:55:30;;;;;;;9.18;3.28;;;;;;;13.67;37.40;97460.53;5074678;28;20048;-67
2022/05/11 05:57:56;;;;;;;3.08;2.20;;;;;;;13.77;37.35;97448.59;5074789;28;20043;-67
2022/05/11 06:00:22;;;;;;;5.20;2.22;;;;;;;13.90;37.14;97457.28;5076514;28;20048;-67
2022/05/11 06:02:48;;;;;;;7.05;5.53;;;;;;;14.13;36.44;97459.31;5075709;28;20036;-69
2022/05/11 06:05:15;;;;;;;2.90;2.15;;;;;;;14.26;36.49;97443.97;5075444;28;20037;-67
2022/05/11 06:07:41;;;;;;;6.35;1.90;;;;;;;14.38;36.39;97457.38;5075061;28;20082;-69
2022/05/11 06:10:07;;;;;;;8.32;4.57;;;;;;;14.31;36.56;97443.94;5075217;28;20098;-67
2022/05/11 06:12:33;;;;;;;11.10;3.22;;;;;;;14.41;36.48;97453.22;5074785;28;20057;-68
2022/05/11 06:14:59;;;;;;;3.50;3.28;;;;;;;14.60;36.49;97451.31;5074608;28;20055;-69
2022/05/11 06:17:25;;;;;;;4.35;3.22;;;;;;;14.74;36.40;97453.41;5073493;28;20052;-68
2022/05/11 06:19:52;;;;;;;5.22;4.40;;;;;;;14.81;36.20;97434.53;5074740;28;20071;-68
2022/05/11 06:22:18;;;;;;;8.68;4.15;;;;;;;15.07;36.38;97451.59;5074582;28;20052;-66
2022/05/11 06:24:43;;;;;;;5.80;3.28;;;;;;;15.11;36.31;97458.19;5074254;28;20040;-67
2022/05/11 06:27:20;;;;;;;5.18;3.33;;;;;;;15.12;36.34;97450.69;5073992;28;20044;-68
2022/05/11 06:29:54;;;;;;;4.47;3.58;;;;;;;15.24;36.58;97457.44;5075295;28;20048;-69
2022/05/11 06:32:22;;;;;;;6.93;2.42;;;;;;;15.35;36.53;97457.28;5074873;28;20045;-69
2022/05/11 06:34:48;;;;;;;8.35;3.85;;;;;;;15.48;36.18;97452.94;5074312;28;20036;-66
2022/05/11 06:37:14;;;;;;;3.67;3.03;;;;;;;15.67;36.38;97447.41;5074243;28;20040;-67
2022/05/11 06:39:40;;;;;;;14.05;5.22;;;;;;;15.74;36.14;97465.25;5074200;28;20144;-67
2022/05/11 06:42:13;;;;;;;9.95;5.30;;;;;;;15.54;36.73;97449.78;5074360;28;20051;-70
2022/05/11 06:44:40;;;;;;;13.82;5.57;;;;;;;15.39;36.93;97444.50;5073409;28;20075;-68
2022/05/11 06:47:06;;;;;;;6.80;2.45;;;;;;;15.34;37.33;97452.88;5073684;28;20450;-68
2022/05/11 06:49:33;;;;;;;7.22;3.80;;;;;;;15.01;37.76;97450.84;5074020;28;20059;-68
2022/05/11 06:51:59;;;;;;;9.32;3.97;;;;;;;14.59;38.68;97452.47;5073397;28;20071;-68
2022/05/11 06:59:57;;;;;;;4.13;2.72;;;;;;;14.67;38.47;97449.06;5073906;28;20106;-68
2022/05/11 07:02:25;;;;;;;3.75;3.42;;;;;;;14.72;38.47;97453.69;5073753;28;20051;-69
2022/05/11 07:04:51;;;;;;;6.70;3.95;;;;;;;14.50;39.01;97456.97;5073845;28;20047;-70
2022/05/11 07:07:18;;;;;;;8.07;3.03;;;;;;;14.36;39.41;97454.91;5073581;28;20037;-69
2022/05/11 07:09:45;;;;;;;6.93;3.40;;;;;;;14.27;39.70;97453.91;5073519;28;20396;-69
2022/05/11 07:12:21;;;;;;;5.25;3.38;;;;;;;14.19;39.92;97454.53;5073685;28;20040;-69
2022/05/11 07:14:58;;;;;;;7.55;3.70;;;;;;;14.12;39.82;97454.91;5073499;28;20032;-67
2022/05/11 07:17:46;;;;;;;8.57;3.05;;;;;;;14.08;40.17;97453.00;5072878;28;20115;-69
2022/05/11 07:20:19;;;;;;;2.35;1.90;;;;;;;14.09;40.09;97461.00;5073652;28;20418;-68
2022/05/11 07:22:45;;;;;;;2.38;1.88;;;;;;;13.85;40.64;97449.91;5073482;28;20032;-68
2022/05/11 07:25:16;;;;;;;3.05;1.90;;;;;;;13.70;40.97;97452.81;5073386;28;20553;-69
2022/05/11 07:27:44;;;;;;;10.10;2.85;;;;;;;13.57;41.44;97455.09;5072975;28;20051;-71
2022/05/11 07:30:16;;;;;;;4.72;3.08;;;;;;;13.49;41.69;97458.47;5072327;28;20040;-69
2022/05/11 07:32:42;;;;;;;5.97;2.20;;;;;;;13.53;41.42;97470.59;5072900;28;20036;-71
2022/05/11 07:35:08;;;;;;;6.13;3.10;;;;;;;13.64;41.53;97461.09;5073108;28;20513;-67
2022/05/11 07:37:34;;;;;;;2.70;2.42;;;;;;;13.75;41.21;97475.66;5055404;28;20479;-68
2022/05/11 07:40:00;;;;;;;1.45;1.27;;;;;;;13.79;41.37;97475.88;5072472;28;20182;-69
2022/05/11 07:42:30;;;;;;;1.90;1.58;;;;;;;13.76;41.72;97470.94;5072569;28;20434;-68
2022/05/11 07:44:56;;;;;;;5.00;2.53;;;;;;;13.67;42.30;97477.06;5072754;28;20047;-68
2022/05/11 07:47:22;;;;;;;10.20;2.95;;;;;;;13.55;42.49;97473.06;5054192;28;20461;-67
2022/05/11 07:49:48;;;;;;;3.47;2.63;;;;;;;13.54;42.64;97476.91;5072647;28;20052;-67
2022/05/11 07:52:14;;;;;;;17.27;3.35;;;;;;;13.55;42.64;97478.56;5072534;28;20090;-68
2022/05/11 07:54:41;;;;;;;3.80;2.00;;;;;;;13.59;42.75;97463.91;5072509;28;20040;-71
2022/05/11 07:59:56;;;;;;;1.92;1.58;;;;;;;13.49;43.35;97475.03;5073203;28;20118;-69
2022/05/11 08:02:30;;;;;;;7.90;2.53;;;;;;;13.54;43.54;97471.41;5058442;28;20066;-69
2022/05/11 08:04:59;;;;;;;3.38;2.15;;;;;;;13.44;43.62;97466.78;5062532;28;20033;-74
2022/05/11 08:07:34;;;;;;;1.17;1.15;;;;;;;13.36;44.27;97470.16;5062352;28;20443;-67
2022/05/11 08:10:00;;;;;;;1.83;1.70;;;;;;;13.22;44.20;97468.00;5070120;28;20040;-71
2022/05/11 08:12:27;;;;;;;1.75;1.65;;;;;;;13.18;44.66;97480.69;5071746;28;20518;-72
2022/05/11 08:14:54;;;;;;;1.98;1.35;;;;;;;13.11;44.77;97481.00;5071380;28;20036;-70
2022/05/11 08:17:29;;;;;;;9.50;1.55;;;;;;;13.15;45.10;97481.28;5070765;28;20041;-69
2022/05/11 08:19:55;;;;;;;1.50;1.42;;;;;;;13.16;44.83;97485.66;5070942;28;20435;-67
2022/05/11 08:22:22;;;;;;;2.75;1.63;;;;;;;13.04;45.25;97482.44;5058045;28;20037;-68
2022/05/11 08:24:49;;;;;;;4.90;2.58;;;;;;;13.01;45.25;97485.75;5067301;28;20619;-68
2022/05/11 08:27:22;;;;;;;2.97;1.75;;;;;;;12.76;46.34;97477.34;5069140;28;20417;-69
2022/05/11 08:35:16;;;;;;;4.40;2.38;;;;;;;12.26;47.41;97482.72;5069097;28;20035;-69
2022/05/11 08:37:43;;;;;;;9.48;1.80;;;;;;;12.29;47.55;97484.06;5068513;28;20040;-68
2022/05/11 08:40:17;;;;;;;2.08;1.85;;;;;;;12.39;47.03;97495.06;5068070;28;20068;-69
2022/05/11 08:42:43;;;;;;;4.65;1.73;;;;;;;12.29;47.44;97497.00;5072833;28;20043;-68
2022/05/11 08:45:11;;;;;;;3.40;1.52;;;;;;;12.15;47.81;97491.28;5072612;28;20554;-70
2022/05/11 08:47:46;;;;;;;6.30;2.33;;;;;;;12.06;48.42;97493.75;5072347;28;20048;-69
2022/05/11 08:50:16;;;;;;;3.15;1.75;;;;;;;12.10;48.06;97489.31;5071151;28;20063;-69
2022/05/11 08:52:57;;;;;;;0.98;0.98;;;;;;;12.06;48.13;97469.81;5052717;28;20041;-71
2022/05/11 08:55:34;;;;;;;1.45;1.38;;;;;;;12.25;47.95;97499.50;5071302;28;20156;-70
2022/05/11 08:58:29;;;;;;;2.58;1.85;;;;;;;12.18;48.18;97497.03;5072030;28;20052;-69
2022/05/11 09:00:57;;;;;;;2.55;2.20;;;;;;;12.21;48.24;97514.91;5066348;28;20055;-73
2022/05/11 09:03:34;;;;;;;3.92;2.00;;;;;;;12.18;48.33;97502.53;5068612;28;20053;-73
2022/05/11 09:06:02;;;;;;;3.20;1.92;;;;;;;12.21;48.45;97499.22;5071013;28;20070;-69
2022/05/11 09:08:32;;;;;;;5.38;1.33;;;;;;;12.14;48.88;97498.69;5073242;28;20048;-72
2022/05/11 09:10:58;;;;;;;2.92;1.65;;;;;;;11.93;49.58;97503.38;5073089;28;20090;-68
2022/05/11 09:13:27;;;;;;;3.17;1.95;;;;;;;11.78;50.05;97504.19;5072830;28;20036;-69
2022/05/11 09:15:55;;;;;;;5.50;2.10;;;;;;;11.69;50.29;97516.81;5074246;28;20470;-70
2022/05/11 09:18:41;;;;;;;2.45;1.77;;;;;;;11.67;50.36;97500.59;5073493;28;20105;-69
2022/05/11 09:21:24;;;;;;;6.32;1.88;;;;;;;11.67;50.50;97511.59;5071980;28;20538;-69
2022/05/11 09:23:59;;;;;;;1.73;1.35;;;;;;;11.72;50.21;97506.09;5073490;28;20048;-68
2022/05/11 09:26:34;;;;;;;5.25;2.65;;;;;;;11.83;50.26;97511.63;5073716;28;20044;-68
2022/05/11 09:29:18;;;;;;;1.20;1.10;;;;;;;11.92;50.37;97519.03;5073159;28;20491;-67
2022/05/11 09:31:45;;;;;;;4.03;2.28;;;;;;;11.89;50.33;97521.50;5072626;28;20033;-69
2022/05/11 09:34:14;;;;;;;3.97;2.03;;;;;;;11.86;50.46;97509.13;5073324;28;20127;-68
2022/05/11 09:36:51;;;;;;;3.45;2.35;;;;;;;11.96;50.59;97515.78;5069294;28;20051;-70
2022/05/11 09:39:18;;;;;;;6.03;2.08;;;;;;;12.03;50.42;97521.81;5069053;28;20131;-67
2022/05/11 09:41:51;;;;;;;4.50;1.88;;;;;;;11.96;50.76;97513.03;5072459;28;20032;-68
2022/05/11 09:44:29;;;;;;;2.30;1.40;;;;;;;11.92;50.96;97510.78;5071276;28;20099;-67
2022/05/11 09:46:55;;;;;;;2.15;1.42;;;;;;;11.78;51.17;97515.19;5070753;28;20270;-68
2022/05/11 09:49:21;;;;;;;3.13;1.75;;;;;;;11.83;51.17;97523.44;5069672;28;20083;-69
2022/05/11 09:51:47;;;;;;;2.17;1.95;;;;;;;11.94;51.37;97520.72;5069879;28;20467;-69
2022/05/11 09:54:18;;;;;;;2.55;1.45;;;;;;;11.85;51.50;97507.50;5072724;28;20611;-68
2022/05/11 09:57:11;;;;;;;1.23;1.00;;;;;;;11.82;51.93;97510.78;5071421;28;20056;-69
2022/05/11 09:59:40;;;;;;;1.40;1.00;;;;;;;11.82;51.86;97510.78;5071615;28;20056;-67
2022/05/11 10:02:39;;;;;;;0.90;0.77;;;;;;;11.94;51.85;97513.31;5072410;28;20499;-67
2022/05/11 10:05:24;;;;;;;2.63;1.55;;;;;;;12.04;51.58;97516.03;5072348;28;20446;-68
2022/05/11 10:07:55;;;;;;;1.70;1.30;;;;;;;12.07;51.55;97531.16;5070385;28;20048;-67
2022/05/11 10:10:34;;;;;;;1.88;1.77;;;;;;;11.97;52.33;97520.16;5067857;28;20036;-67
2022/05/11 10:13:11;;;;;;;2.10;1.48;;;;;;;11.95;52.34;97514.13;5072153;28;20032;-67
2022/05/11 10:21:50;;;;;;;3.85;1.60;;;;;;;11.79;52.75;97519.56;5069038;28;20047;-68
2022/05/11 10:22:28;;;;;;;3.30;2.13;;;;;;;11.61;53.30;97520.13;5071668;28;20036;-65
2022/05/11 10:25:19;;;;;;;5.32;1.85;;;;;;;11.68;53.12;97531.69;5069353;28;20056;-68
2022/05/11 10:28:10;;;;;;;3.33;1.52;;;;;;;11.81;53.06;97520.13;5070980;28;20111;-66
2022/05/11 10:31:09;;;;;;;6.35;1.45;;;;;;;11.99;52.73;97520.72;5069033;28;20107;-67
2022/05/11 10:33:54;;;;;;;2.47;1.60;;;;;;;11.96;52.90;97527.59;5071823;28;20045;-68
2022/05/11 10:36:33;;;;;;;1.63;1.52;;;;;;;11.94;52.98;97526.22;5070203;28;20446;-67
2022/05/11 10:39:09;;;;;;;3.25;1.38;;;;;;;11.98;52.79;97522.63;5069981;28;20040;-68
2022/05/11 10:41:45;;;;;;;1.75;1.40;;;;;;;11.92;53.43;97531.97;5071140;28;20395;-68
2022/05/11 10:44:21;;;;;;;4.13;1.92;;;;;;;11.77;53.51;97537.47;5071383;28;20076;-68
2022/05/11 10:47:05;;;;;;;3.78;2.00;;;;;;;11.67;53.98;97528.09;5070784;28;20104;-68
2022/05/11 10:50:15;;;;;;;2.80;1.17;;;;;;;11.59;54.31;97531.41;5085757;28;20045;-68
2022/05/11 10:52:59;;;;;;;2.45;1.17;;;;;;;11.52;54.40;97534.41;4989913;28;20050;-67
2022/05/11 10:55:39;;;;;;;1.42;1.30;;;;;;;11.48;54.70;97543.47;4987179;28;20793;-69
2022/05/11 10:58:42;;;;;;;1.40;1.25;;;;;;;11.37;54.89;97537.13;5027913;28;20075;-70
2022/05/11 11:01:15;;;;;;;1.33;1.23;;;;;;;11.34;55.06;97530.25;5068683;28;20057;-68
2022/05/11 11:03:50;;;;;;;3.05;1.63;;;;;;;11.45;54.80;97531.09;5071428;28;20048;-69
2022/05/11 11:10:01;;;;;;;1.17;1.08;;;;;;;11.56;54.76;97534.69;5071243;28;20047;-68
2022/05/11 11:13:05;;;;;;;;;;;;;;;11.63;54.57;97537.16;5045417;28;20051;-68
2022/05/11 11:15:35;;;;;;;1.20;0.85;;;;;;;11.65;54.37;97537.72;5029131;28;20498;-68
2022/05/11 11:18:03;;;;;;;1.48;1.38;;;;;;;11.62;54.56;97541.03;5028155;28;20069;-68
2022/05/11 11:20:36;;;;;;;1.85;1.02;;;;;;;11.63;54.78;97550.91;5050019;28;20537;-68
2022/05/11 11:23:13;;;;;;;2.10;0.95;;;;;;;11.65;55.03;97540.47;5070981;28;20040;-68
2022/05/11 11:25:51;;;;;;;1.13;1.08;;;;;;;11.70;55.13;97545.97;5070808;28;20072;-67
2022/05/11 11:28:19;;;;;;;1.02;1.00;;;;;;;11.70;54.96;97545.97;5068910;28;20040;-66
2022/05/11 11:31:00;;;;;;;2.53;0.98;;;;;;;11.70;55.30;97546.81;5070572;28;20032;-68
2022/05/11 11:33:28;;;;;;;1.40;1.30;;;;;;;11.72;55.29;97543.78;5070429;28;20040;-67
2022/05/11 11:36:00;;;;;;;4.63;1.05;;;;;;;11.80;55.53;97534.97;5070167;28;20131;-70
2022/05/11 11:38:41;;;;;;;1.67;0.93;;;;;;;11.87;55.29;97545.72;5066167;28;20071;-68
2022/05/11 11:41:16;;;;;;;1.65;1.45;;;;;;;11.88;55.54;97537.19;5068316;28;20491;-67
2022/05/11 11:43:54;;;;;;;1.10;0.90;;;;;;;11.89;55.67;97543.50;5069055;28;20036;-68
2022/05/11 11:46:47;;;;;;;0.70;0.70;;;;;;;11.94;55.69;97551.81;5069087;28;20101;-68
2022/05/11 11:49:18;;;;;;;0.98;0.88;;;;;;;11.88;55.99;97548.19;5063148;28;20045;-68
2022/05/11 11:52:00;;;;;;;1.98;1.50;;;;;;;11.90;55.99;97545.16;5069323;28;20075;-68
2022/05/11 11:54:36;;;;;;;3.13;1.77;;;;;;;12.02;56.09;97558.69;5066069;28;20124;-66
2022/05/11 11:57:07;;;;;;;3.08;1.10;;;;;;;11.95;56.01;97550.69;5066112;28;20045;-73
2022/05/11 11:59:50;;;;;;;3.25;1.35;;;;;;;11.88;56.56;97559.19;5065642;28;20052;-68
2022/05/11 12:02:28;;;;;;;1.85;1.35;;;;;;;11.72;57.18;97557.53;5065647;28;20458;-67
2022/05/11 12:04:57;;;;;;;3.67;0.73;;;;;;;11.58;57.62;97563.53;5070736;28;20116;-66
2022/05/11 12:16:13;;;;;;;0.95;0.90;;;;;;;11.47;57.95;97570.13;5069222;28;20071;-68
2022/05/11 12:18:41;;;;;;;0.73;0.73;;;;;;;11.49;58.03;97556.94;5068006;28;20040;-68
2022/05/11 12:21:22;;;;;;;3.30;0.98;;;;;;;11.58;58.20;97565.47;5068721;28;20131;-71
2022/05/11 12:23:50;;;;;;;1.50;1.17;;;;;;;11.60;58.20;97563.28;5068912;28;20036;-67